Time,TemperatureF,DewpointF,PressureIn,WindDirection,WindDirectionDegrees,WindSpeedMPH,WindSpeedGustMPH,Humidity,HourlyPrecipIn,Conditions,Clouds,dailyrainin,SolarRadiationWatts/m^2,SoftwareType,DateUTC
2013-05-05 07:00:00,33.0,25.0,30.22,West,267,5.0,-999.0,73,-99.99,,,-99.99,166.199997,,2013-05-05 13:00:00,
2013-05-05 07:52:00,33.0,25.0,30.22,West,267,5.0,-999.0,73,-99.99,,,-99.99,166.199997,,2013-05-05 13:52:00,
2013-05-05 08:00:00,42.0,25.0,30.25,WNW,294,6.0,-999.0,50,-99.99,,,-99.99,314.200012,,2013-05-05 14:00:00,
2013-05-05 08:52:00,42.0,25.0,30.25,WNW,294,6.0,-999.0,50,-99.99,,,-99.99,314.200012,,2013-05-05 14:52:00,
2013-05-05 09:00:00,47.0,20.0,30.24,NW,310,8.0,-999.0,33,-99.99,,,-99.99,509.799988,,2013-05-05 15:00:00,
2013-05-05 09:53:00,47.0,20.0,30.24,NW,310,8.0,-999.0,33,-99.99,,,-99.99,509.799988,,2013-05-05 15:53:00,
2013-05-05 10:00:00,51.0,19.0,30.24,North,350,8.0,-999.0,28,-99.99,,,-99.99,684.500000,,2013-05-05 16:00:00,
2013-05-05 10:53:00,51.0,19.0,30.24,North,350,8.0,-999.0,28,-99.99,,,-99.99,684.500000,,2013-05-05 16:53:00,
2013-05-05 11:00:00,54.0,20.0,30.23,North,355,9.0,-999.0,26,-99.99,,,-99.99,824.000000,,2013-05-05 17:00:00,
2013-05-05 11:52:00,54.0,20.0,30.23,North,355,9.0,-999.0,26,-99.99,,,-99.99,824.000000,,2013-05-05 17:52:00,
2013-05-05 12:00:00,56.0,17.0,30.21,North,353,8.0,-999.0,21,-99.99,,,-99.99,913.000000,,2013-05-05 18:00:00,
2013-05-05 12:52:00,56.0,17.0,30.21,North,353,8.0,-999.0,21,-99.99,,,-99.99,913.000000,,2013-05-05 18:52:00,
2013-05-05 13:00:00,58.0,16.0,30.19,North,355,6.0,-999.0,19,-99.99,,,-99.99,937.000000,,2013-05-05 19:00:00,
2013-05-05 13:52:00,58.0,16.0,30.19,North,355,6.0,-999.0,19,-99.99,,,-99.99,937.000000,,2013-05-05 19:52:00,
2013-05-05 14:00:00,60.0,17.0,30.17,North,354,6.0,-999.0,18,-99.99,,,-99.99,925.000000,,2013-05-05 20:00:00,
2013-05-05 14:52:00,60.0,17.0,30.17,North,354,6.0,-999.0,18,-99.99,,,-99.99,925.000000,,2013-05-05 20:52:00,
2013-05-05 15:00:00,61.0,18.0,30.16,NNE,16,6.0,-999.0,18,-99.99,,,-99.99,844.000000,,2013-05-05 21:00:00,
2013-05-05 15:53:00,61.0,18.0,30.16,NNE,16,6.0,-999.0,18,-99.99,,,-99.99,844.000000,,2013-05-05 21:53:00,
2013-05-05 16:00:00,62.0,18.0,30.14,NNE,31,5.0,-999.0,18,-99.99,,,-99.99,721.000000,,2013-05-05 22:00:00,
2013-05-05 16:52:00,62.0,18.0,30.14,NNE,31,5.0,-999.0,18,-99.99,,,-99.99,721.000000,,2013-05-05 22:52:00,
2013-05-05 17:00:00,63.0,17.0,30.13,NNE,24,5.0,-999.0,17,-99.99,,,-99.99,549.299988,,2013-05-05 23:00:00,
2013-05-05 17:52:00,63.0,17.0,30.13,NNE,24,5.0,-999.0,17,-99.99,,,-99.99,549.299988,,2013-05-05 23:52:00,
2013-05-05 18:00:00,61.0,18.0,30.12,NE,43,4.0,-999.0,18,-99.99,,,-99.99,297.299988,,2013-05-06 00:00:00,
2013-05-05 18:52:00,61.0,18.0,30.12,NE,43,4.0,-999.0,18,-99.99,,,-99.99,297.299988,,2013-05-06 00:52:00,
2013-05-05 19:00:00,32.0,-51.0,3.43,East,95,4.0,-999.0,0,-99.99,,,-99.99,54.209999,,2013-05-06 01:00:00,
2013-05-05 19:52:00,32.0,-51.0,3.43,East,95,4.0,-999.0,0,-99.99,,,-99.99,54.209999,,2013-05-06 01:52:00,